sensor_id;sensor_type;location;lat;lon;timestamp;pressure;altitude;pressure_sealevel;temperature;humidity
72857;BME280;62742;52.136;4.500;2023-08-17T00:01:26;102197.63;;;18.25;81.04
72857;BME280;62742;52.136;4.500;2023-08-17T00:03:56;102197.72;;;18.20;81.26
72857;BME280;62742;52.136;4.500;2023-08-17T00:06:33;102201.97;;;18.27;80.18
72857;BME280;62742;52.136;4.500;2023-08-17T00:09:12;102202.25;;;18.17;80.60
72857;BME280;62742;52.136;4.500;2023-08-17T00:11:38;102193.94;;;18.29;80.71
72857;BME280;62742;52.136;4.500;2023-08-17T00:14:05;102205.72;;;18.20;80.63
72857;BME280;62742;52.136;4.500;2023-08-17T00:16:36;102210.72;;;18.32;79.55
72857;BME280;62742;52.136;4.500;2023-08-17T00:19:05;102209.25;;;18.21;79.98
72857;BME280;62742;52.136;4.500;2023-08-17T00:21:38;102211.22;;;18.14;80.29
72857;BME280;62742;52.136;4.500;2023-08-17T00:24:04;102213.22;;;18.04;80.88
72857;BME280;62742;52.136;4.500;2023-08-17T00:26:31;102203.41;;;18.06;80.74
72857;BME280;62742;52.136;4.500;2023-08-17T00:28:57;102209.47;;;18.11;80.18
72857;BME280;62742;52.136;4.500;2023-08-17T00:31:25;102206.81;;;18.11;80.64
72857;BME280;62742;52.136;4.500;2023-08-17T00:33:52;102203.34;;;18.09;80.16
72857;BME280;62742;52.136;4.500;2023-08-17T00:36:19;102207.13;;;17.99;81.08
72857;BME280;62742;52.136;4.500;2023-08-17T00:38:45;102204.66;;;17.91;81.01
72857;BME280;62742;52.136;4.500;2023-08-17T00:41:13;102199.19;;;17.98;81.13
72857;BME280;62742;52.136;4.500;2023-08-17T00:43:39;102198.31;;;17.97;80.74
72857;BME280;62742;52.136;4.500;2023-08-17T00:46:11;102195.44;;;18.06;79.95
72857;BME280;62742;52.136;4.500;2023-08-17T00:48:38;102188.53;;;17.99;80.53
72857;BME280;62742;52.136;4.500;2023-08-17T00:51:05;102186.13;;;17.88;80.92
72857;BME280;62742;52.136;4.500;2023-08-17T00:53:32;102184.47;;;17.81;81.40
72857;BME280;62742;52.136;4.500;2023-08-17T00:56:02;102194.41;;;17.73;81.09
72857;BME280;62742;52.136;4.500;2023-08-17T00:58:33;102184.50;;;17.80;81.42
72857;BME280;62742;52.136;4.500;2023-08-17T01:01:02;102191.81;;;17.71;81.75
72857;BME280;62742;52.136;4.500;2023-08-17T01:03:30;102191.13;;;17.63;82.00
72857;BME280;62742;52.136;4.500;2023-08-17T01:05:58;102190.81;;;17.75;82.01
72857;BME280;62742;52.136;4.500;2023-08-17T01:08:25;102203.28;;;17.73;81.95
72857;BME280;62742;52.136;4.500;2023-08-17T01:14:17;102199.75;;;17.73;82.11
72857;BME280;62742;52.136;4.500;2023-08-17T01:17:19;102200.69;;;17.70;81.95
72857;BME280;62742;52.136;4.500;2023-08-17T01:19:52;102197.19;;;17.70;82.02
72857;BME280;62742;52.136;4.500;2023-08-17T01:22:21;102197.41;;;17.59;82.59
72857;BME280;62742;52.136;4.500;2023-08-17T01:24:50;102194.78;;;17.57;82.88
72857;BME280;62742;52.136;4.500;2023-08-17T01:27:24;102205.63;;;17.48;83.30
72857;BME280;62742;52.136;4.500;2023-08-17T01:29:51;102203.88;;;17.47;83.70
72857;BME280;62742;52.136;4.500;2023-08-17T01:32:24;102206.47;;;17.50;83.69
72857;BME280;62742;52.136;4.500;2023-08-17T01:35:07;102197.91;;;17.37;83.77
72857;BME280;62742;52.136;4.500;2023-08-17T01:37:41;102202.47;;;17.31;84.23
72857;BME280;62742;52.136;4.500;2023-08-17T01:40:12;102196.88;;;17.43;83.28
72857;BME280;62742;52.136;4.500;2023-08-17T01:42:41;102196.38;;;17.27;83.94
72857;BME280;62742;52.136;4.500;2023-08-17T01:45:10;102197.06;;;17.35;83.82
72857;BME280;62742;52.136;4.500;2023-08-17T01:47:38;102198.03;;;17.31;83.82
72857;BME280;62742;52.136;4.500;2023-08-17T01:50:05;102196.19;;;17.35;83.49
72857;BME280;62742;52.136;4.500;2023-08-17T01:52:32;102197.25;;;17.26;83.46
72857;BME280;62742;52.136;4.500;2023-08-17T01:54:58;102187.72;;;17.17;84.31
72857;BME280;62742;52.136;4.500;2023-08-17T01:57:26;102191.19;;;17.19;84.16
72857;BME280;62742;52.136;4.500;2023-08-17T01:59:53;102187.81;;;17.13;84.46
72857;BME280;62742;52.136;4.500;2023-08-17T02:02:20;102184.50;;;17.03;84.59
72857;BME280;62742;52.136;4.500;2023-08-17T02:04:47;102182.59;;;17.10;84.33
72857;BME280;62742;52.136;4.500;2023-08-17T02:07:14;102190.38;;;17.17;83.92
72857;BME280;62742;52.136;4.500;2023-08-17T02:09:42;102190.56;;;17.10;84.47
72857;BME280;62742;52.136;4.500;2023-08-17T02:12:09;102184.44;;;17.05;84.40
72857;BME280;62742;52.136;4.500;2023-08-17T02:14:39;102177.34;;;17.05;84.33
72857;BME280;62742;52.136;4.500;2023-08-17T02:17:05;102183.75;;;16.96;84.57
72857;BME280;62742;52.136;4.500;2023-08-17T02:19:32;102177.31;;;17.07;83.78
72857;BME280;62742;52.136;4.500;2023-08-17T02:21:59;102179.25;;;16.98;84.49
72857;BME280;62742;52.136;4.500;2023-08-17T02:24:25;102173.75;;;17.08;84.02
72857;BME280;62742;52.136;4.500;2023-08-17T02:26:52;102179.06;;;17.08;83.84
72857;BME280;62742;52.136;4.500;2023-08-17T02:29:19;102185.38;;;17.02;84.42
72857;BME280;62742;52.136;4.500;2023-08-17T02:31:46;102186.50;;;16.90;85.21
72857;BME280;62742;52.136;4.500;2023-08-17T02:34:13;102183.03;;;16.87;85.02
72857;BME280;62742;52.136;4.500;2023-08-17T02:36:40;102185.75;;;16.82;85.20
72857;BME280;62742;52.136;4.500;2023-08-17T02:39:06;102188.31;;;16.88;85.20
72857;BME280;62742;52.136;4.500;2023-08-17T02:41:33;102193.22;;;17.10;84.08
72857;BME280;62742;52.136;4.500;2023-08-17T02:44:01;102182.88;;;16.94;85.12
72857;BME280;62742;52.136;4.500;2023-08-17T02:46:28;102184.44;;;17.05;84.60
72857;BME280;62742;52.136;4.500;2023-08-17T02:48:54;102183.94;;;16.86;85.46
72857;BME280;62742;52.136;4.500;2023-08-17T02:51:22;102182.22;;;16.85;85.68
72857;BME280;62742;52.136;4.500;2023-08-17T02:53:49;102185.66;;;16.88;85.12
72857;BME280;62742;52.136;4.500;2023-08-17T02:56:16;102181.50;;;16.73;86.12
72857;BME280;62742;52.136;4.500;2023-08-17T02:58:44;102178.03;;;16.70;86.11
72857;BME280;62742;52.136;4.500;2023-08-17T03:01:12;102180.47;;;16.80;85.64
72857;BME280;62742;52.136;4.500;2023-08-17T03:03:40;102177.22;;;16.66;86.42
72857;BME280;62742;52.136;4.500;2023-08-17T03:06:07;102175.53;;;16.62;86.69
72857;BME280;62742;52.136;4.500;2023-08-17T03:08:34;102176.34;;;16.66;87.03
72857;BME280;62742;52.136;4.500;2023-08-17T03:11:02;102171.94;;;16.64;86.79
72857;BME280;62742;52.136;4.500;2023-08-17T03:13:28;102171.88;;;16.69;86.18
72857;BME280;62742;52.136;4.500;2023-08-17T03:15:55;102178.22;;;16.60;86.65
72857;BME280;62742;52.136;4.500;2023-08-17T03:18:27;102179.91;;;16.64;86.32
72857;BME280;62742;52.136;4.500;2023-08-17T03:20:53;102179.66;;;16.77;85.79
72857;BME280;62742;52.136;4.500;2023-08-17T03:23:21;102176.34;;;16.66;86.62
72857;BME280;62742;52.136;4.500;2023-08-17T03:25:52;102175.50;;;16.63;86.99
72857;BME280;62742;52.136;4.500;2023-08-17T03:28:20;102179.22;;;16.53;86.82
72857;BME280;62742;52.136;4.500;2023-08-17T03:30:46;102177.34;;;16.58;87.15
72857;BME280;62742;52.136;4.500;2023-08-17T03:33:14;102170.91;;;16.72;86.61
72857;BME280;62742;52.136;4.500;2023-08-17T03:35:42;102168.53;;;16.58;87.28
72857;BME280;62742;52.136;4.500;2023-08-17T03:38:08;102172.66;;;16.73;86.62
72857;BME280;62742;52.136;4.500;2023-08-17T03:40:36;102181.41;;;16.78;85.48
72857;BME280;62742;52.136;4.500;2023-08-17T03:43:03;102171.19;;;16.58;86.90
72857;BME280;62742;52.136;4.500;2023-08-17T03:45:32;102173.00;;;16.56;87.23
72857;BME280;62742;52.136;4.500;2023-08-17T03:47:59;102172.00;;;16.61;86.60
72857;BME280;62742;52.136;4.500;2023-08-17T03:50:29;102171.09;;;16.62;86.58
72857;BME280;62742;52.136;4.500;2023-08-17T03:52:57;102173.75;;;16.62;86.70
72857;BME280;62742;52.136;4.500;2023-08-17T03:55:28;102171.03;;;16.67;86.09
72857;BME280;62742;52.136;4.500;2023-08-17T03:57:55;102171.75;;;16.74;86.18
72857;BME280;62742;52.136;4.500;2023-08-17T04:00:22;102168.59;;;16.53;87.36
72857;BME280;62742;52.136;4.500;2023-08-17T04:02:52;102169.47;;;16.55;87.63
72857;BME280;62742;52.136;4.500;2023-08-17T04:05:23;102167.66;;;16.57;87.35
72857;BME280;62742;52.136;4.500;2023-08-17T04:07:50;102168.56;;;16.56;87.55
72857;BME280;62742;52.136;4.500;2023-08-17T04:10:19;102163.19;;;16.59;87.61
72857;BME280;62742;52.136;4.500;2023-08-17T04:12:45;102170.59;;;16.43;88.27
72857;BME280;62742;52.136;4.500;2023-08-17T04:15:13;102173.34;;;16.37;88.69
72857;BME280;62742;52.136;4.500;2023-08-17T04:17:40;102169.81;;;16.37;89.47
72857;BME280;62742;52.136;4.500;2023-08-17T04:20:07;102168.50;;;16.59;88.06
72857;BME280;62742;52.136;4.500;2023-08-17T04:22:35;102173.03;;;16.54;88.32
72857;BME280;62742;52.136;4.500;2023-08-17T04:25:02;102172.25;;;16.49;88.46
72857;BME280;62742;52.136;4.500;2023-08-17T04:27:30;102171.34;;;16.50;88.69
72857;BME280;62742;52.136;4.500;2023-08-17T04:30:00;102168.72;;;16.49;88.58
72857;BME280;62742;52.136;4.500;2023-08-17T04:32:28;102171.41;;;16.47;88.46
72857;BME280;62742;52.136;4.500;2023-08-17T04:34:56;102171.56;;;16.38;89.27
72857;BME280;62742;52.136;4.500;2023-08-17T04:37:23;102171.56;;;16.38;89.46
72857;BME280;62742;52.136;4.500;2023-08-17T04:39:50;102175.97;;;16.39;89.34
72857;BME280;62742;52.136;4.500;2023-08-17T04:42:24;102171.47;;;16.42;88.98
72857;BME280;62742;52.136;4.500;2023-08-17T04:44:54;102175.06;;;16.40;89.19
72857;BME280;62742;52.136;4.500;2023-08-17T04:47:22;102172.25;;;16.49;88.27
72857;BME280;62742;52.136;4.500;2023-08-17T04:49:48;102168.66;;;16.52;88.66
72857;BME280;62742;52.136;4.500;2023-08-17T04:52:17;102168.78;;;16.44;88.99
72857;BME280;62742;52.136;4.500;2023-08-17T04:54:46;102168.53;;;16.58;87.82
72857;BME280;62742;52.136;4.500;2023-08-17T04:57:14;102160.72;;;16.52;88.18
72857;BME280;62742;52.136;4.500;2023-08-17T04:59:41;102174.69;;;16.58;87.94
72857;BME280;62742;52.136;4.500;2023-08-17T05:02:07;102165.66;;;16.69;87.66
72857;BME280;62742;52.136;4.500;2023-08-17T05:04:35;102162.34;;;16.59;88.33
72857;BME280;62742;52.136;4.500;2023-08-17T05:07:02;102167.53;;;16.63;88.38
72857;BME280;62742;52.136;4.500;2023-08-17T05:09:28;102158.53;;;16.72;87.56
72857;BME280;62742;52.136;4.500;2023-08-17T05:11:56;102161.19;;;16.72;88.05
72857;BME280;62742;52.136;4.500;2023-08-17T05:14:23;102153.78;;;16.90;86.91
72857;BME280;62742;52.136;4.500;2023-08-17T05:16:49;102152.00;;;16.90;86.55
72857;BME280;62742;52.136;4.500;2023-08-17T05:19:16;102154.81;;;16.81;87.52
72857;BME280;62742;52.136;4.500;2023-08-17T05:21:43;102153.00;;;16.85;86.43
72857;BME280;62742;52.136;4.500;2023-08-17T05:24:09;102153.88;;;16.85;86.30
72857;BME280;62742;52.136;4.500;2023-08-17T05:26:38;102145.03;;;16.83;86.21
72857;BME280;62742;52.136;4.500;2023-08-17T05:29:06;102158.38;;;16.80;86.74
72857;BME280;62742;52.136;4.500;2023-08-17T05:31:35;102160.22;;;16.76;87.17
72857;BME280;62742;52.136;4.500;2023-08-17T05:34:01;102153.16;;;16.74;87.29
72857;BME280;62742;52.136;4.500;2023-08-17T05:36:30;102152.34;;;16.72;87.12
72857;BME280;62742;52.136;4.500;2023-08-17T05:38:58;102154.81;;;16.81;87.60
72857;BME280;62742;52.136;4.500;2023-08-17T05:41:26;102159.22;;;16.80;87.11
72857;BME280;62742;52.136;4.500;2023-08-17T05:43:52;102157.38;;;16.86;87.36
72857;BME280;62742;52.136;4.500;2023-08-17T05:46:20;102161.00;;;16.81;87.01
72857;BME280;62742;52.136;4.500;2023-08-17T05:48:47;102164.88;;;17.09;87.20
72857;BME280;62742;52.136;4.500;2023-08-17T05:51:13;102159.53;;;17.51;85.26
72857;BME280;62742;52.136;4.500;2023-08-17T05:53:40;102159.03;;;17.71;83.56
72857;BME280;62742;52.136;4.500;2023-08-17T05:56:06;102156.88;;;17.51;83.93
72857;BME280;62742;52.136;4.500;2023-08-17T05:58:33;102160.19;;;17.59;83.47
72857;BME280;62742;52.136;4.500;2023-08-17T06:01:06;102166.88;;;17.38;83.90
72857;BME280;62742;52.136;4.500;2023-08-17T06:03:34;102162.44;;;17.38;84.35
72857;BME280;62742;52.136;4.500;2023-08-17T06:06:02;102161.50;;;17.41;84.02
72857;BME280;62742;52.136;4.500;2023-08-17T06:08:29;102164.94;;;17.46;84.21
72857;BME280;62742;52.136;4.500;2023-08-17T06:10:56;102159.75;;;17.40;84.68
72857;BME280;62742;52.136;4.500;2023-08-17T06:13:23;102164.16;;;17.41;85.41
72857;BME280;62742;52.136;4.500;2023-08-17T06:15:50;102170.63;;;17.68;84.13
72857;BME280;62742;52.136;4.500;2023-08-17T06:18:16;102179.59;;;17.63;84.66
72857;BME280;62742;52.136;4.500;2023-08-17T06:20:44;102171.00;;;17.53;85.06
72857;BME280;62742;52.136;4.500;2023-08-17T06:23:13;102175.28;;;17.58;85.45
72857;BME280;62742;52.136;4.500;2023-08-17T06:25:39;102175.94;;;17.68;85.82
72857;BME280;62742;52.136;4.500;2023-08-17T06:28:06;102182.34;;;17.60;85.70
72857;BME280;62742;52.136;4.500;2023-08-17T06:30:34;102179.50;;;17.67;85.21
72857;BME280;62742;52.136;4.500;2023-08-17T06:33:01;102180.44;;;17.66;84.50
72857;BME280;62742;52.136;4.500;2023-08-17T06:35:28;102182.97;;;17.69;86.01
72857;BME280;62742;52.136;4.500;2023-08-17T06:37:56;102188.47;;;17.63;86.10
72857;BME280;62742;52.136;4.500;2023-08-17T06:40:26;102192.31;;;17.89;85.87
72857;BME280;62742;52.136;4.500;2023-08-17T06:43:10;102190.66;;;17.83;86.38
72857;BME280;62742;52.136;4.500;2023-08-17T06:45:37;102191.59;;;17.81;86.58
72857;BME280;62742;52.136;4.500;2023-08-17T06:48:05;102186.25;;;17.82;86.79
72857;BME280;62742;52.136;4.500;2023-08-17T06:50:33;102193.31;;;17.83;85.29
72857;BME280;62742;52.136;4.500;2023-08-17T06:53:00;102193.84;;;17.99;85.13
72857;BME280;62742;52.136;4.500;2023-08-17T06:55:28;102192.59;;;18.14;85.11
72857;BME280;62742;52.136;4.500;2023-08-17T06:57:58;102183.97;;;18.04;85.05
72857;BME280;62742;52.136;4.500;2023-08-17T07:00:25;102187.81;;;18.27;84.49
72857;BME280;62742;52.136;4.500;2023-08-17T07:02:52;102186.56;;;18.40;84.61
72857;BME280;62742;52.136;4.500;2023-08-17T07:05:18;102196.97;;;18.49;83.30
72857;BME280;62742;52.136;4.500;2023-08-17T07:07:45;102188.03;;;18.52;82.35
72857;BME280;62742;52.136;4.500;2023-08-17T07:10:12;102189.88;;;18.50;82.42
72857;BME280;62742;52.136;4.500;2023-08-17T07:12:39;102183.69;;;18.48;83.54
72857;BME280;62742;52.136;4.500;2023-08-17T07:15:06;102187.81;;;18.60;82.67
72857;BME280;62742;52.136;4.500;2023-08-17T07:17:34;102181.66;;;18.58;82.37
72857;BME280;62742;52.136;4.500;2023-08-17T07:20:00;102172.34;;;18.74;81.74
72857;BME280;62742;52.136;4.500;2023-08-17T07:22:27;102174.53;;;18.91;79.82
72857;BME280;62742;52.136;4.500;2023-08-17T07:24:53;102172.72;;;18.93;80.31
72857;BME280;62742;52.136;4.500;2023-08-17T07:27:19;102178.31;;;19.14;80.23
72857;BME280;62742;52.136;4.500;2023-08-17T07:29:46;102175.00;;;19.05;79.57
72857;BME280;62742;52.136;4.500;2023-08-17T07:32:13;102183.69;;;18.82;78.92
72857;BME280;62742;52.136;4.500;2023-08-17T07:34:39;102190.34;;;18.97;80.75
72857;BME280;62742;52.136;4.500;2023-08-17T07:37:05;102193.53;;;19.10;79.56
72857;BME280;62742;52.136;4.500;2023-08-17T07:39:34;102196.00;;;19.16;77.81
72857;BME280;62742;52.136;4.500;2023-08-17T07:42:02;102192.41;;;19.17;78.21
72857;BME280;62742;52.136;4.500;2023-08-17T07:44:28;102190.25;;;19.58;77.83
72857;BME280;62742;52.136;4.500;2023-08-17T07:46:57;102187.81;;;19.80;77.26
72857;BME280;62742;52.136;4.500;2023-08-17T07:49:25;102185.28;;;19.76;75.11
72857;BME280;62742;52.136;4.500;2023-08-17T07:51:51;102193.47;;;19.70;74.31
72857;BME280;62742;52.136;4.500;2023-08-17T07:54:18;102185.47;;;19.70;75.08
72857;BME280;62742;52.136;4.500;2023-08-17T07:56:44;102179.00;;;19.78;75.87
72857;BME280;62742;52.136;4.500;2023-08-17T07:59:11;102181.34;;;19.88;74.93
72857;BME280;62742;52.136;4.500;2023-08-17T08:01:39;102181.31;;;20.16;75.00
72857;BME280;62742;52.136;4.500;2023-08-17T08:04:06;102177.06;;;20.61;72.69
72857;BME280;62742;52.136;4.500;2023-08-17T08:06:32;102190.16;;;20.68;71.69
72857;BME280;62742;52.136;4.500;2023-08-17T08:09:01;102184.06;;;20.88;70.61
72857;BME280;62742;52.136;4.500;2023-08-17T08:11:28;102178.56;;;21.17;70.25
72857;BME280;62742;52.136;4.500;2023-08-17T08:13:57;102176.56;;;21.45;70.81
72857;BME280;62742;52.136;4.500;2023-08-17T08:16:24;102165.06;;;21.42;69.15
72857;BME280;62742;52.136;4.500;2023-08-17T08:18:51;102167.25;;;21.56;67.36
72857;BME280;62742;52.136;4.500;2023-08-17T08:21:18;102169.13;;;21.30;68.12
72857;BME280;62742;52.136;4.500;2023-08-17T08:23:47;102163.22;;;21.22;67.12
72857;BME280;62742;52.136;4.500;2023-08-17T08:26:15;102163.19;;;21.45;66.94
72857;BME280;62742;52.136;4.500;2023-08-17T08:28:42;102158.25;;;21.35;67.51
72857;BME280;62742;52.136;4.500;2023-08-17T08:31:08;102160.72;;;21.63;67.53
72857;BME280;62742;52.136;4.500;2023-08-17T08:33:35;102156.91;;;21.46;67.45
72857;BME280;62742;52.136;4.500;2023-08-17T08:36:06;102163.06;;;21.48;66.59
72857;BME280;62742;52.136;4.500;2023-08-17T08:38:42;102164.00;;;21.70;66.69
72857;BME280;62742;52.136;4.500;2023-08-17T08:41:16;102150.63;;;21.70;66.19
72857;BME280;62742;52.136;4.500;2023-08-17T08:43:50;102137.72;;;21.79;64.96
72857;BME280;62742;52.136;4.500;2023-08-17T08:46:20;102148.69;;;21.73;65.77
72857;BME280;62742;52.136;4.500;2023-08-17T08:48:54;102148.06;;;21.89;66.79
72857;BME280;62742;52.136;4.500;2023-08-17T08:51:29;102135.00;;;22.01;66.87
72857;BME280;62742;52.136;4.500;2023-08-17T08:54:05;102138.34;;;22.27;66.32
72857;BME280;62742;52.136;4.500;2023-08-17T08:56:42;102134.28;;;22.39;65.18
72857;BME280;62742;52.136;4.500;2023-08-17T08:59:20;102144.69;;;22.47;63.25
72857;BME280;62742;52.136;4.500;2023-08-17T09:01:50;102141.19;;;22.45;63.44
72857;BME280;62742;52.136;4.500;2023-08-17T09:04:21;102139.06;;;22.72;65.03
72857;BME280;62742;52.136;4.500;2023-08-17T09:06:51;102135.91;;;23.02;64.19
72857;BME280;62742;52.136;4.500;2023-08-17T09:09:22;102134.78;;;22.87;61.99
72857;BME280;62742;52.136;4.500;2023-08-17T09:11:49;102134.13;;;23.01;64.22
72857;BME280;62742;52.136;4.500;2023-08-17T09:14:17;102131.47;;;23.39;63.03
72857;BME280;62742;52.136;4.500;2023-08-17T09:16:47;102129.63;;;23.58;61.57
72857;BME280;62742;52.136;4.500;2023-08-17T09:19:16;102127.44;;;24.01;61.60
72857;BME280;62742;52.136;4.500;2023-08-17T09:21:50;102129.47;;;23.61;60.31
72857;BME280;62742;52.136;4.500;2023-08-17T09:24:18;102133.94;;;23.97;60.21
72857;BME280;62742;52.136;4.500;2023-08-17T09:26:49;102131.41;;;23.94;61.42
72857;BME280;62742;52.136;4.500;2023-08-17T09:29:26;102136.09;;;23.71;61.79
72857;BME280;62742;52.136;4.500;2023-08-17T09:32:11;102126.44;;;24.04;61.43
72857;BME280;62742;52.136;4.500;2023-08-17T09:34:44;102127.94;;;24.09;59.77
72857;BME280;62742;52.136;4.500;2023-08-17T09:37:13;102124.31;;;23.93;59.74
72857;BME280;62742;52.136;4.500;2023-08-17T09:39:44;102116.03;;;23.44;59.68
72857;BME280;62742;52.136;4.500;2023-08-17T09:42:14;102112.91;;;23.34;60.65
72857;BME280;62742;52.136;4.500;2023-08-17T09:44:45;102111.59;;;23.60;61.89
72857;BME280;62742;52.136;4.500;2023-08-17T09:47:12;102107.84;;;23.64;60.32
72857;BME280;62742;52.136;4.500;2023-08-17T09:49:39;102105.34;;;23.96;60.43
72857;BME280;62742;52.136;4.500;2023-08-17T09:52:06;102103.00;;;23.90;61.28
72857;BME280;62742;52.136;4.500;2023-08-17T09:54:51;102100.34;;;23.71;58.94
72857;BME280;62742;52.136;4.500;2023-08-17T09:57:23;102103.91;;;23.71;59.99
72857;BME280;62742;52.136;4.500;2023-08-17T10:00:08;102106.09;;;23.81;60.58
72857;BME280;62742;52.136;4.500;2023-08-17T10:02:39;102100.50;;;23.68;62.20
72857;BME280;62742;52.136;4.500;2023-08-17T10:05:25;102104.81;;;24.07;60.05
72857;BME280;62742;52.136;4.500;2023-08-17T10:07:57;102108.09;;;23.95;60.84
72857;BME280;62742;52.136;4.500;2023-08-17T10:10:33;102108.31;;;24.25;59.75
72857;BME280;62742;52.136;4.500;2023-08-17T10:13:31;102107.53;;;24.23;59.31
72857;BME280;62742;52.136;4.500;2023-08-17T10:16:28;102104.25;;;24.51;58.84
72857;BME280;62742;52.136;4.500;2023-08-17T10:20:01;102111.97;;;24.24;59.10
72857;BME280;62742;52.136;4.500;2023-08-17T10:23:01;102094.50;;;24.49;57.32
72857;BME280;62742;52.136;4.500;2023-08-17T10:26:05;102085.97;;;23.55;59.93
72857;BME280;62742;52.136;4.500;2023-08-17T10:28:57;102086.44;;;23.45;60.30
72857;BME280;62742;52.136;4.500;2023-08-17T10:31:29;102087.00;;;23.69;61.14
72857;BME280;62742;52.136;4.500;2023-08-17T10:34:02;102088.31;;;23.07;59.23
72857;BME280;62742;52.136;4.500;2023-08-17T10:36:44;102083.41;;;23.34;59.85
72857;BME280;62742;52.136;4.500;2023-08-17T10:39:46;102090.28;;;23.94;59.70
72857;BME280;62742;52.136;4.500;2023-08-17T10:42:35;102097.16;;;23.82;58.38
72857;BME280;62742;52.136;4.500;2023-08-17T10:45:35;102093.31;;;24.21;59.52
72857;BME280;62742;52.136;4.500;2023-08-17T10:51:03;102091.31;;;24.75;57.82
72857;BME280;62742;52.136;4.500;2023-08-17T10:53:46;102095.38;;;24.49;55.61
72857;BME280;62742;52.136;4.500;2023-08-17T10:56:34;102093.97;;;24.08;58.80
72857;BME280;62742;52.136;4.500;2023-08-17T10:59:27;102088.69;;;24.07;57.67
72857;BME280;62742;52.136;4.500;2023-08-17T11:02:01;102088.63;;;24.75;58.31
72857;BME280;62742;52.136;4.500;2023-08-17T11:04:32;102083.16;;;24.93;58.31
72857;BME280;62742;52.136;4.500;2023-08-17T11:07:15;102077.09;;;24.89;56.68
72857;BME280;62742;52.136;4.500;2023-08-17T11:09:45;102066.25;;;24.91;57.32
72857;BME280;62742;52.136;4.500;2023-08-17T11:12:30;102077.34;;;25.16;59.12
72857;BME280;62742;52.136;4.500;2023-08-17T11:14:59;102079.31;;;25.45;57.84
72857;BME280;62742;52.136;4.500;2023-08-17T11:17:25;102085.66;;;24.80;56.38
72857;BME280;62742;52.136;4.500;2023-08-17T11:19:57;102077.50;;;24.66;56.66
72857;BME280;62742;52.136;4.500;2023-08-17T11:22:36;102075.69;;;24.49;58.42
72857;BME280;62742;52.136;4.500;2023-08-17T11:25:04;102064.06;;;24.97;57.08
72857;BME280;62742;52.136;4.500;2023-08-17T11:27:36;102065.63;;;25.33;55.78
72857;BME280;62742;52.136;4.500;2023-08-17T11:30:16;102066.84;;;25.28;56.99
72857;BME280;62742;52.136;4.500;2023-08-17T11:32:52;102067.94;;;25.24;57.43
72857;BME280;62742;52.136;4.500;2023-08-17T11:35:21;102073.25;;;24.44;56.85
72857;BME280;62742;52.136;4.500;2023-08-17T11:37:58;102066.47;;;24.54;58.14
72857;BME280;62742;52.136;4.500;2023-08-17T11:40:26;102065.44;;;25.20;57.47
72857;BME280;62742;52.136;4.500;2023-08-17T11:42:56;102068.50;;;25.14;56.44
72857;BME280;62742;52.136;4.500;2023-08-17T11:45:34;102064.66;;;24.87;55.57
72857;BME280;62742;52.136;4.500;2023-08-17T11:48:01;102077.06;;;24.73;57.56
72857;BME280;62742;52.136;4.500;2023-08-17T11:50:30;102076.47;;;24.51;57.04
72857;BME280;62742;52.136;4.500;2023-08-17T11:53:02;102069.97;;;24.05;58.27
72857;BME280;62742;52.136;4.500;2023-08-17T11:55:30;102066.47;;;23.68;59.40
72857;BME280;62742;52.136;4.500;2023-08-17T11:57:58;102063.31;;;23.60;59.53
72857;BME280;62742;52.136;4.500;2023-08-17T12:00:39;102061.19;;;23.84;59.27
72857;BME280;62742;52.136;4.500;2023-08-17T12:03:15;102061.31;;;24.16;61.30
72857;BME280;62742;52.136;4.500;2023-08-17T12:05:44;102060.84;;;24.59;60.53
72857;BME280;62742;52.136;4.500;2023-08-17T12:08:22;102046.00;;;24.83;58.52
72857;BME280;62742;52.136;4.500;2023-08-17T12:10:52;102055.03;;;24.82;58.75
72857;BME280;62742;52.136;4.500;2023-08-17T12:13:50;102060.41;;;24.98;57.59
72857;BME280;62742;52.136;4.500;2023-08-17T12:16:23;102060.16;;;25.03;57.23
72857;BME280;62742;52.136;4.500;2023-08-17T12:18:53;102057.81;;;24.81;57.38
72857;BME280;62742;52.136;4.500;2023-08-17T12:21:24;102066.50;;;24.70;58.28
72857;BME280;62742;52.136;4.500;2023-08-17T12:23:53;102063.25;;;25.43;57.17
72857;BME280;62742;52.136;4.500;2023-08-17T12:26:24;102058.84;;;25.87;57.79
72857;BME280;62742;52.136;4.500;2023-08-17T12:28:56;102059.59;;;25.74;54.78
72857;BME280;62742;52.136;4.500;2023-08-17T12:31:23;102049.25;;;25.52;55.59
72857;BME280;62742;52.136;4.500;2023-08-17T12:33:50;102049.59;;;25.46;55.57
72857;BME280;62742;52.136;4.500;2023-08-17T12:36:17;102053.31;;;25.60;55.53
72857;BME280;62742;52.136;4.500;2023-08-17T12:38:47;102045.63;;;25.68;55.54
72857;BME280;62742;52.136;4.500;2023-08-17T12:41:19;102053.28;;;25.45;55.96
72857;BME280;62742;52.136;4.500;2023-08-17T12:43:45;102049.09;;;25.24;56.13
72857;BME280;62742;52.136;4.500;2023-08-17T12:46:12;102052.69;;;25.08;57.13
72857;BME280;62742;52.136;4.500;2023-08-17T12:48:41;102048.97;;;24.95;56.85
72857;BME280;62742;52.136;4.500;2023-08-17T12:51:09;102045.31;;;25.12;58.26
72857;BME280;62742;52.136;4.500;2023-08-17T12:53:38;102043.28;;;25.47;57.91
72857;BME280;62742;52.136;4.500;2023-08-17T12:56:05;102048.50;;;25.65;56.71
72857;BME280;62742;52.136;4.500;2023-08-17T12:58:33;102033.63;;;25.43;55.73
72857;BME280;62742;52.136;4.500;2023-08-17T13:00:59;102032.78;;;25.43;57.09
72857;BME280;62742;52.136;4.500;2023-08-17T13:03:27;102037.00;;;25.77;55.44
72857;BME280;62742;52.136;4.500;2023-08-17T13:05:54;102040.19;;;25.53;56.71
72857;BME280;62742;52.136;4.500;2023-08-17T13:08:23;102037.16;;;25.13;56.81
72857;BME280;62742;52.136;4.500;2023-08-17T13:10:54;102030.03;;;25.28;57.30
72857;BME280;62742;52.136;4.500;2023-08-17T13:13:25;102036.97;;;25.00;56.01